sensor_id;sensor_type;location;lat;lon;timestamp;P1;durP1;ratioP1;P2;durP2;ratioP2
30519;SDS011;17300;50.374;8.006;2023-02-13T00:01:58;7.27;;;6.27;;
30519;SDS011;17300;50.374;8.006;2023-02-13T00:04:25;6.07;;;5.47;;
30519;SDS011;17300;50.374;8.006;2023-02-13T00:06:51;7.00;;;5.63;;
30519;SDS011;17300;50.374;8.006;2023-02-13T00:09:18;6.67;;;5.80;;
30519;SDS011;17300;50.374;8.006;2023-02-13T00:11:44;7.33;;;6.20;;
30519;SDS011;17300;50.374;8.006;2023-02-13T00:14:11;6.87;;;6.00;;
30519;SDS011;17300;50.374;8.006;2023-02-13T00:16:38;6.37;;;5.57;;
30519;SDS011;17300;50.374;8.006;2023-02-13T00:19:06;6.23;;;5.63;;
30519;SDS011;17300;50.374;8.006;2023-02-13T00:21:32;7.20;;;5.90;;
30519;SDS011;17300;50.374;8.006;2023-02-13T00:23:59;6.73;;;6.03;;
30519;SDS011;17300;50.374;8.006;2023-02-13T00:26:26;6.60;;;5.90;;
30519;SDS011;17300;50.374;8.006;2023-02-13T00:28:52;6.37;;;5.43;;
30519;SDS011;17300;50.374;8.006;2023-02-13T00:31:20;7.07;;;6.23;;
30519;SDS011;17300;50.374;8.006;2023-02-13T00:33:47;6.67;;;5.97;;
30519;SDS011;17300;50.374;8.006;2023-02-13T00:36:16;6.70;;;6.00;;
30519;SDS011;17300;50.374;8.006;2023-02-13T00:38:44;7.50;;;6.30;;
30519;SDS011;17300;50.374;8.006;2023-02-13T00:41:11;6.80;;;6.10;;
30519;SDS011;17300;50.374;8.006;2023-02-13T00:43:40;6.70;;;5.80;;
30519;SDS011;17300;50.374;8.006;2023-02-13T00:46:07;6.47;;;5.60;;
30519;SDS011;17300;50.374;8.006;2023-02-13T00:48:34;7.37;;;6.17;;
30519;SDS011;17300;50.374;8.006;2023-02-13T00:51:01;7.20;;;5.90;;
30519;SDS011;17300;50.374;8.006;2023-02-13T00:53:30;6.33;;;5.73;;
30519;SDS011;17300;50.374;8.006;2023-02-13T00:55:57;6.73;;;6.03;;
30519;SDS011;17300;50.374;8.006;2023-02-13T00:58:24;7.40;;;6.10;;
30519;SDS011;17300;50.374;8.006;2023-02-13T01:00:52;6.60;;;5.43;;
30519;SDS011;17300;50.374;8.006;2023-02-13T01:03:22;7.20;;;6.10;;
30519;SDS011;17300;50.374;8.006;2023-02-13T01:05:57;6.77;;;6.07;;
30519;SDS011;17300;50.374;8.006;2023-02-13T01:08:27;6.43;;;5.77;;
30519;SDS011;17300;50.374;8.006;2023-02-13T01:10:55;5.87;;;5.20;;
30519;SDS011;17300;50.374;8.006;2023-02-13T01:13:22;7.37;;;6.10;;
30519;SDS011;17300;50.374;8.006;2023-02-13T01:15:50;6.13;;;5.53;;
30519;SDS011;17300;50.374;8.006;2023-02-13T01:18:17;6.07;;;5.20;;
30519;SDS011;17300;50.374;8.006;2023-02-13T01:20:45;5.70;;;5.10;;
30519;SDS011;17300;50.374;8.006;2023-02-13T01:23:22;5.83;;;5.23;;
30519;SDS011;17300;50.374;8.006;2023-02-13T01:25:48;6.50;;;5.43;;
30519;SDS011;17300;50.374;8.006;2023-02-13T01:28:17;6.60;;;5.47;;
30519;SDS011;17300;50.374;8.006;2023-02-13T01:30:44;6.00;;;5.40;;
30519;SDS011;17300;50.374;8.006;2023-02-13T01:33:10;6.10;;;5.50;;
30519;SDS011;17300;50.374;8.006;2023-02-13T01:35:37;6.40;;;5.60;;
30519;SDS011;17300;50.374;8.006;2023-02-13T01:38:04;5.63;;;5.00;;
30519;SDS011;17300;50.374;8.006;2023-02-13T01:40:31;6.17;;;5.30;;
30519;SDS011;17300;50.374;8.006;2023-02-13T01:42:58;6.17;;;5.30;;
30519;SDS011;17300;50.374;8.006;2023-02-13T01:45:26;5.80;;;5.20;;
30519;SDS011;17300;50.374;8.006;2023-02-13T01:47:55;5.67;;;5.17;;
30519;SDS011;17300;50.374;8.006;2023-02-13T01:50:27;7.07;;;5.10;;
30519;SDS011;17300;50.374;8.006;2023-02-13T01:52:58;6.67;;;5.97;;
30519;SDS011;17300;50.374;8.006;2023-02-13T01:55:29;6.40;;;5.43;;
30519;SDS011;17300;50.374;8.006;2023-02-13T01:57:58;5.80;;;5.07;;
30519;SDS011;17300;50.374;8.006;2023-02-13T02:00:28;7.27;;;5.77;;
30519;SDS011;17300;50.374;8.006;2023-02-13T02:02:57;6.33;;;5.40;;
30519;SDS011;17300;50.374;8.006;2023-02-13T02:05:27;6.60;;;5.90;;
30519;SDS011;17300;50.374;8.006;2023-02-13T02:07:57;7.53;;;6.00;;
30519;SDS011;17300;50.374;8.006;2023-02-13T02:10:28;6.60;;;5.77;;
30519;SDS011;17300;50.374;8.006;2023-02-13T02:12:57;6.77;;;5.50;;
30519;SDS011;17300;50.374;8.006;2023-02-13T02:15:31;5.27;;;4.77;;
30519;SDS011;17300;50.374;8.006;2023-02-13T02:17:58;6.10;;;5.10;;
30519;SDS011;17300;50.374;8.006;2023-02-13T02:20:28;6.57;;;5.70;;
30519;SDS011;17300;50.374;8.006;2023-02-13T02:23:15;6.50;;;5.23;;
30519;SDS011;17300;50.374;8.006;2023-02-13T02:29:13;6.00;;;5.37;;
30519;SDS011;17300;50.374;8.006;2023-02-13T02:32:09;5.90;;;5.30;;
30519;SDS011;17300;50.374;8.006;2023-02-13T02:34:47;5.37;;;4.87;;
30519;SDS011;17300;50.374;8.006;2023-02-13T02:37:26;6.40;;;5.53;;
30519;SDS011;17300;50.374;8.006;2023-02-13T02:40:07;6.33;;;5.43;;
30519;SDS011;17300;50.374;8.006;2023-02-13T02:42:41;5.57;;;5.03;;
30519;SDS011;17300;50.374;8.006;2023-02-13T02:45:16;5.93;;;5.33;;
30519;SDS011;17300;50.374;8.006;2023-02-13T02:47:53;6.43;;;5.57;;
30519;SDS011;17300;50.374;8.006;2023-02-13T02:50:43;5.77;;;5.27;;
30519;SDS011;17300;50.374;8.006;2023-02-13T02:53:17;5.67;;;5.07;;
30519;SDS011;17300;50.374;8.006;2023-02-13T02:55:53;5.70;;;5.00;;
30519;SDS011;17300;50.374;8.006;2023-02-13T02:58:27;6.13;;;5.20;;
30519;SDS011;17300;50.374;8.006;2023-02-13T03:01:17;5.60;;;5.00;;
30519;SDS011;17300;50.374;8.006;2023-02-13T03:04:02;4.83;;;4.43;;
30519;SDS011;17300;50.374;8.006;2023-02-13T03:06:48;5.67;;;5.07;;
30519;SDS011;17300;50.374;8.006;2023-02-13T03:09:19;5.67;;;4.90;;
30519;SDS011;17300;50.374;8.006;2023-02-13T03:12:09;5.90;;;5.13;;
30519;SDS011;17300;50.374;8.006;2023-02-13T03:14:56;5.43;;;4.80;;
30519;SDS011;17300;50.374;8.006;2023-02-13T03:17:23;5.60;;;5.00;;
30519;SDS011;17300;50.374;8.006;2023-02-13T03:20:21;6.37;;;5.40;;
30519;SDS011;17300;50.374;8.006;2023-02-13T03:23:18;5.90;;;5.17;;
30519;SDS011;17300;50.374;8.006;2023-02-13T03:26:02;5.63;;;4.90;;
30519;SDS011;17300;50.374;8.006;2023-02-13T03:28:38;6.10;;;5.07;;
30519;SDS011;17300;50.374;8.006;2023-02-13T03:31:30;5.93;;;5.13;;
30519;SDS011;17300;50.374;8.006;2023-02-13T03:34:04;5.53;;;4.50;;
30519;SDS011;17300;50.374;8.006;2023-02-13T03:36:40;6.33;;;5.53;;
30519;SDS011;17300;50.374;8.006;2023-02-13T03:39:33;5.90;;;5.17;;
30519;SDS011;17300;50.374;8.006;2023-02-13T03:42:10;6.00;;;5.00;;
30519;SDS011;17300;50.374;8.006;2023-02-13T03:44:40;5.50;;;4.93;;
30519;SDS011;17300;50.374;8.006;2023-02-13T03:47:33;6.40;;;5.53;;
30519;SDS011;17300;50.374;8.006;2023-02-13T03:50:00;6.17;;;5.47;;
30519;SDS011;17300;50.374;8.006;2023-02-13T03:52:34;6.13;;;5.33;;
30519;SDS011;17300;50.374;8.006;2023-02-13T03:55:05;7.47;;;5.37;;
30519;SDS011;17300;50.374;8.006;2023-02-13T03:57:52;6.47;;;5.30;;
30519;SDS011;17300;50.374;8.006;2023-02-13T04:00:40;5.73;;;5.13;;
30519;SDS011;17300;50.374;8.006;2023-02-13T04:03:10;6.70;;;5.67;;
30519;SDS011;17300;50.374;8.006;2023-02-13T04:05:41;6.17;;;5.33;;
30519;SDS011;17300;50.374;8.006;2023-02-13T04:08:13;7.57;;;5.80;;
30519;SDS011;17300;50.374;8.006;2023-02-13T04:10:41;6.40;;;5.40;;
30519;SDS011;17300;50.374;8.006;2023-02-13T04:13:14;6.10;;;5.50;;
30519;SDS011;17300;50.374;8.006;2023-02-13T04:15:47;6.17;;;5.40;;
30519;SDS011;17300;50.374;8.006;2023-02-13T04:18:19;7.10;;;5.80;;
30519;SDS011;17300;50.374;8.006;2023-02-13T04:20:48;6.53;;;5.53;;
30519;SDS011;17300;50.374;8.006;2023-02-13T04:23:16;6.43;;;5.17;;
30519;SDS011;17300;50.374;8.006;2023-02-13T04:25:44;6.00;;;5.17;;
30519;SDS011;17300;50.374;8.006;2023-02-13T04:28:13;7.20;;;6.10;;
30519;SDS011;17300;50.374;8.006;2023-02-13T04:30:40;6.37;;;5.50;;
30519;SDS011;17300;50.374;8.006;2023-02-13T04:33:06;6.10;;;5.30;;
30519;SDS011;17300;50.374;8.006;2023-02-13T04:35:33;6.43;;;5.33;;
30519;SDS011;17300;50.374;8.006;2023-02-13T04:38:00;7.03;;;5.60;;
30519;SDS011;17300;50.374;8.006;2023-02-13T04:40:28;5.97;;;5.13;;
30519;SDS011;17300;50.374;8.006;2023-02-13T04:42:55;5.90;;;5.33;;
30519;SDS011;17300;50.374;8.006;2023-02-13T04:45:21;7.30;;;6.03;;
30519;SDS011;17300;50.374;8.006;2023-02-13T04:47:48;7.13;;;5.70;;
30519;SDS011;17300;50.374;8.006;2023-02-13T04:50:16;6.57;;;5.87;;
30519;SDS011;17300;50.374;8.006;2023-02-13T04:52:43;6.10;;;5.50;;
30519;SDS011;17300;50.374;8.006;2023-02-13T04:55:10;6.03;;;5.40;;
30519;SDS011;17300;50.374;8.006;2023-02-13T04:57:38;7.87;;;5.87;;
30519;SDS011;17300;50.374;8.006;2023-02-13T05:00:05;7.90;;;6.43;;
30519;SDS011;17300;50.374;8.006;2023-02-13T05:02:33;7.23;;;5.60;;
30519;SDS011;17300;50.374;8.006;2023-02-13T05:05:00;6.53;;;5.83;;
30519;SDS011;17300;50.374;8.006;2023-02-13T05:07:26;8.03;;;5.80;;
30519;SDS011;17300;50.374;8.006;2023-02-13T05:09:53;6.63;;;5.43;;
30519;SDS011;17300;50.374;8.006;2023-02-13T05:12:20;6.07;;;4.73;;
30519;SDS011;17300;50.374;8.006;2023-02-13T05:14:48;6.57;;;5.30;;
30519;SDS011;17300;50.374;8.006;2023-02-13T05:17:14;6.43;;;5.53;;
30519;SDS011;17300;50.374;8.006;2023-02-13T05:19:41;6.93;;;5.83;;
30519;SDS011;17300;50.374;8.006;2023-02-13T05:22:08;6.07;;;5.40;;
30519;SDS011;17300;50.374;8.006;2023-02-13T05:24:53;5.80;;;4.93;;
30519;SDS011;17300;50.374;8.006;2023-02-13T05:27:19;6.07;;;5.30;;
30519;SDS011;17300;50.374;8.006;2023-02-13T05:29:47;6.00;;;5.40;;
30519;SDS011;17300;50.374;8.006;2023-02-13T05:32:14;6.57;;;5.67;;
30519;SDS011;17300;50.374;8.006;2023-02-13T05:34:41;6.90;;;5.40;;
30519;SDS011;17300;50.374;8.006;2023-02-13T05:37:07;5.77;;;4.90;;
30519;SDS011;17300;50.374;8.006;2023-02-13T05:39:34;6.03;;;5.10;;
30519;SDS011;17300;50.374;8.006;2023-02-13T05:42:01;6.03;;;5.43;;
30519;SDS011;17300;50.374;8.006;2023-02-13T05:44:28;6.30;;;5.60;;
30519;SDS011;17300;50.374;8.006;2023-02-13T05:46:57;6.53;;;5.87;;
30519;SDS011;17300;50.374;8.006;2023-02-13T05:49:23;7.00;;;5.50;;
30519;SDS011;17300;50.374;8.006;2023-02-13T05:51:50;5.93;;;5.33;;
30519;SDS011;17300;50.374;8.006;2023-02-13T05:54:17;6.37;;;5.60;;
30519;SDS011;17300;50.374;8.006;2023-02-13T05:56:44;7.80;;;6.57;;
30519;SDS011;17300;50.374;8.006;2023-02-13T05:59:11;10.90;;;7.17;;
30519;SDS011;17300;50.374;8.006;2023-02-13T06:01:37;11.13;;;7.83;;
30519;SDS011;17300;50.374;8.006;2023-02-13T06:04:05;10.67;;;8.50;;
30519;SDS011;17300;50.374;8.006;2023-02-13T06:06:32;10.83;;;8.83;;
30519;SDS011;17300;50.374;8.006;2023-02-13T06:08:59;12.93;;;9.20;;
30519;SDS011;17300;50.374;8.006;2023-02-13T06:11:25;13.13;;;9.67;;
30519;SDS011;17300;50.374;8.006;2023-02-13T06:13:52;15.13;;;9.77;;
30519;SDS011;17300;50.374;8.006;2023-02-13T06:16:19;13.50;;;9.77;;
30519;SDS011;17300;50.374;8.006;2023-02-13T06:18:46;16.87;;;11.00;;
30519;SDS011;17300;50.374;8.006;2023-02-13T06:21:14;13.70;;;9.93;;
30519;SDS011;17300;50.374;8.006;2023-02-13T06:23:41;12.17;;;10.03;;
30519;SDS011;17300;50.374;8.006;2023-02-13T06:26:08;13.80;;;9.73;;
30519;SDS011;17300;50.374;8.006;2023-02-13T06:28:35;14.47;;;9.27;;
30519;SDS011;17300;50.374;8.006;2023-02-13T06:31:02;13.97;;;10.07;;
30519;SDS011;17300;50.374;8.006;2023-02-13T06:33:29;12.60;;;8.90;;
30519;SDS011;17300;50.374;8.006;2023-02-13T06:35:56;10.90;;;9.03;;
30519;SDS011;17300;50.374;8.006;2023-02-13T06:38:24;11.77;;;8.30;;
30519;SDS011;17300;50.374;8.006;2023-02-13T06:40:51;21.47;;;8.73;;
30519;SDS011;17300;50.374;8.006;2023-02-13T06:43:18;11.83;;;8.90;;
30519;SDS011;17300;50.374;8.006;2023-02-13T06:45:45;12.43;;;9.17;;
30519;SDS011;17300;50.374;8.006;2023-02-13T06:48:11;18.77;;;9.33;;
30519;SDS011;17300;50.374;8.006;2023-02-13T06:50:38;13.63;;;8.60;;
30519;SDS011;17300;50.374;8.006;2023-02-13T06:53:05;14.40;;;8.80;;
30519;SDS011;17300;50.374;8.006;2023-02-13T06:55:34;17.27;;;9.27;;
30519;SDS011;17300;50.374;8.006;2023-02-13T06:58:00;21.10;;;9.90;;
30519;SDS011;17300;50.374;8.006;2023-02-13T07:00:28;20.63;;;9.40;;
30519;SDS011;17300;50.374;8.006;2023-02-13T07:02:54;16.37;;;8.97;;
30519;SDS011;17300;50.374;8.006;2023-02-13T07:05:26;23.10;;;8.40;;
30519;SDS011;17300;50.374;8.006;2023-02-13T07:07:53;20.70;;;8.03;;
30519;SDS011;17300;50.374;8.006;2023-02-13T07:10:20;19.47;;;8.20;;
30519;SDS011;17300;50.374;8.006;2023-02-13T07:12:48;14.87;;;7.90;;
30519;SDS011;17300;50.374;8.006;2023-02-13T07:15:15;13.40;;;7.90;;
30519;SDS011;17300;50.374;8.006;2023-02-13T07:17:42;15.50;;;8.23;;
30519;SDS011;17300;50.374;8.006;2023-02-13T07:20:08;23.33;;;8.50;;
30519;SDS011;17300;50.374;8.006;2023-02-13T07:22:36;14.33;;;7.90;;
30519;SDS011;17300;50.374;8.006;2023-02-13T07:25:03;19.60;;;8.53;;
30519;SDS011;17300;50.374;8.006;2023-02-13T07:27:30;13.70;;;7.80;;
30519;SDS011;17300;50.374;8.006;2023-02-13T07:29:58;15.67;;;8.03;;
30519;SDS011;17300;50.374;8.006;2023-02-13T07:32:24;17.30;;;7.10;;
30519;SDS011;17300;50.374;8.006;2023-02-13T07:34:51;12.20;;;7.60;;
30519;SDS011;17300;50.374;8.006;2023-02-13T07:37:18;22.40;;;8.43;;
30519;SDS011;17300;50.374;8.006;2023-02-13T07:39:45;16.23;;;7.83;;
30519;SDS011;17300;50.374;8.006;2023-02-13T07:42:11;14.23;;;7.93;;
30519;SDS011;17300;50.374;8.006;2023-02-13T07:44:38;15.17;;;8.37;;
30519;SDS011;17300;50.374;8.006;2023-02-13T07:47:06;13.87;;;7.97;;
30519;SDS011;17300;50.374;8.006;2023-02-13T07:49:33;24.30;;;8.30;;
30519;SDS011;17300;50.374;8.006;2023-02-13T07:52:00;10.03;;;7.53;;
30519;SDS011;17300;50.374;8.006;2023-02-13T07:54:27;18.17;;;7.60;;
30519;SDS011;17300;50.374;8.006;2023-02-13T07:56:54;20.63;;;8.57;;
30519;SDS011;17300;50.374;8.006;2023-02-13T07:59:21;13.27;;;7.93;;
30519;SDS011;17300;50.374;8.006;2023-02-13T08:01:47;14.03;;;7.50;;
30519;SDS011;17300;50.374;8.006;2023-02-13T08:04:15;10.87;;;7.13;;
30519;SDS011;17300;50.374;8.006;2023-02-13T08:06:42;10.23;;;7.73;;
30519;SDS011;17300;50.374;8.006;2023-02-13T08:09:10;21.60;;;7.63;;
30519;SDS011;17300;50.374;8.006;2023-02-13T08:12:01;12.20;;;7.50;;
30519;SDS011;17300;50.374;8.006;2023-02-13T08:14:28;14.93;;;7.10;;
30519;SDS011;17300;50.374;8.006;2023-02-13T08:16:54;9.83;;;7.60;;
30519;SDS011;17300;50.374;8.006;2023-02-13T08:19:22;9.73;;;7.43;;
30519;SDS011;17300;50.374;8.006;2023-02-13T08:21:49;14.43;;;7.97;;
30519;SDS011;17300;50.374;8.006;2023-02-13T08:24:16;10.53;;;8.00;;
30519;SDS011;17300;50.374;8.006;2023-02-13T08:26:43;13.30;;;8.27;;
30519;SDS011;17300;50.374;8.006;2023-02-13T08:29:10;19.17;;;8.53;;
30519;SDS011;17300;50.374;8.006;2023-02-13T08:31:36;9.30;;;7.60;;
30519;SDS011;17300;50.374;8.006;2023-02-13T08:34:03;8.67;;;7.60;;
30519;SDS011;17300;50.374;8.006;2023-02-13T08:36:31;11.47;;;7.97;;
30519;SDS011;17300;50.374;8.006;2023-02-13T08:38:58;9.53;;;7.70;;
30519;SDS011;17300;50.374;8.006;2023-02-13T08:41:24;9.20;;;8.23;;
30519;SDS011;17300;50.374;8.006;2023-02-13T08:43:52;9.63;;;7.73;;
30519;SDS011;17300;50.374;8.006;2023-02-13T08:46:19;10.03;;;8.00;;
30519;SDS011;17300;50.374;8.006;2023-02-13T08:48:46;8.40;;;7.20;;
30519;SDS011;17300;50.374;8.006;2023-02-13T08:51:13;13.43;;;7.90;;
30519;SDS011;17300;50.374;8.006;2023-02-13T08:53:42;7.20;;;6.50;;
30519;SDS011;17300;50.374;8.006;2023-02-13T08:56:09;8.53;;;7.00;;
30519;SDS011;17300;50.374;8.006;2023-02-13T08:58:36;8.27;;;6.63;;
30519;SDS011;17300;50.374;8.006;2023-02-13T09:01:03;8.60;;;6.83;;
30519;SDS011;17300;50.374;8.006;2023-02-13T09:03:31;7.27;;;6.13;;
30519;SDS011;17300;50.374;8.006;2023-02-13T09:05:58;8.30;;;7.10;;
30519;SDS011;17300;50.374;8.006;2023-02-13T09:08:25;7.73;;;7.03;;
30519;SDS011;17300;50.374;8.006;2023-02-13T09:10:57;7.77;;;6.87;;
30519;SDS011;17300;50.374;8.006;2023-02-13T09:13:25;8.47;;;7.00;;
30519;SDS011;17300;50.374;8.006;2023-02-13T09:15:52;7.17;;;6.47;;
30519;SDS011;17300;50.374;8.006;2023-02-13T09:18:19;7.17;;;6.37;;
30519;SDS011;17300;50.374;8.006;2023-02-13T09:20:46;6.13;;;5.53;;
30519;SDS011;17300;50.374;8.006;2023-02-13T09:23:12;7.63;;;6.40;;
30519;SDS011;17300;50.374;8.006;2023-02-13T09:25:39;7.13;;;6.43;;
30519;SDS011;17300;50.374;8.006;2023-02-13T09:28:07;7.60;;;6.80;;
30519;SDS011;17300;50.374;8.006;2023-02-13T09:30:34;7.93;;;6.93;;
30519;SDS011;17300;50.374;8.006;2023-02-13T09:33:00;7.97;;;7.17;;
30519;SDS011;17300;50.374;8.006;2023-02-13T09:35:27;10.57;;;7.17;;
30519;SDS011;17300;50.374;8.006;2023-02-13T09:37:54;7.63;;;6.93;;
30519;SDS011;17300;50.374;8.006;2023-02-13T09:40:22;7.63;;;6.73;;
30519;SDS011;17300;50.374;8.006;2023-02-13T09:42:51;7.53;;;6.83;;
30519;SDS011;17300;50.374;8.006;2023-02-13T09:45:21;7.23;;;6.53;;
30519;SDS011;17300;50.374;8.006;2023-02-13T09:47:48;7.03;;;6.33;;
30519;SDS011;17300;50.374;8.006;2023-02-13T09:50:18;8.00;;;5.80;;
30519;SDS011;17300;50.374;8.006;2023-02-13T09:52:49;5.90;;;5.40;;
30519;SDS011;17300;50.374;8.006;2023-02-13T09:55:18;5.70;;;5.20;;
30519;SDS011;17300;50.374;8.006;2023-02-13T09:57:50;5.53;;;5.03;;
30519;SDS011;17300;50.374;8.006;2023-02-13T10:00:21;6.07;;;5.57;;
30519;SDS011;17300;50.374;8.006;2023-02-13T10:05:55;6.38;;;5.78;;
30519;SDS011;17300;50.374;8.006;2023-02-13T10:08:40;6.65;;;6.05;;
30519;SDS011;17300;50.374;8.006;2023-02-13T10:11:19;6.25;;;5.75;;
30519;SDS011;17300;50.374;8.006;2023-02-13T10:14:05;6.55;;;6.05;;
30519;SDS011;17300;50.374;8.006;2023-02-13T10:16:42;6.75;;;6.25;;
30519;SDS011;17300;50.374;8.006;2023-02-13T10:19:14;6.82;;;6.32;;
30519;SDS011;17300;50.374;8.006;2023-02-13T10:21:48;6.85;;;6.35;;
30519;SDS011;17300;50.374;8.006;2023-02-13T10:24:19;6.75;;;6.15;;
30519;SDS011;17300;50.374;8.006;2023-02-13T10:26:53;7.50;;;6.90;;
30519;SDS011;17300;50.374;8.006;2023-02-13T10:29:23;6.32;;;5.82;;
30519;SDS011;17300;50.374;8.006;2023-02-13T10:32:16;6.68;;;6.18;;
30519;SDS011;17300;50.374;8.006;2023-02-13T10:34:50;6.63;;;6.10;;
30519;SDS011;17300;50.374;8.006;2023-02-13T10:37:20;6.07;;;5.57;;
30519;SDS011;17300;50.374;8.006;2023-02-13T10:39:48;6.53;;;6.03;;
30519;SDS011;17300;50.374;8.006;2023-02-13T10:42:19;6.60;;;6.10;;
30519;SDS011;17300;50.374;8.006;2023-02-13T10:44:51;6.22;;;5.72;;
30519;SDS011;17300;50.374;8.006;2023-02-13T10:47:32;5.90;;;5.40;;
30519;SDS011;17300;50.374;8.006;2023-02-13T10:50:13;6.28;;;5.78;;
30519;SDS011;17300;50.374;8.006;2023-02-13T10:52:48;5.80;;;5.30;;
30519;SDS011;17300;50.374;8.006;2023-02-13T10:55:27;6.22;;;5.82;;
30519;SDS011;17300;50.374;8.006;2023-02-13T10:58:06;5.60;;;5.20;;
30519;SDS011;17300;50.374;8.006;2023-02-13T11:00:41;6.20;;;5.63;;
30519;SDS011;17300;50.374;8.006;2023-02-13T11:03:16;5.35;;;4.95;;
30519;SDS011;17300;50.374;8.006;2023-02-13T11:05:44;4.88;;;4.57;;
30519;SDS011;17300;50.374;8.006;2023-02-13T11:08:15;5.35;;;4.95;;
30519;SDS011;17300;50.374;8.006;2023-02-13T11:10:44;5.90;;;5.40;;
30519;SDS011;17300;50.374;8.006;2023-02-13T11:13:14;6.07;;;5.57;;
30519;SDS011;17300;50.374;8.006;2023-02-13T11:15:43;5.65;;;5.25;;
30519;SDS011;17300;50.374;8.006;2023-02-13T11:18:24;6.15;;;5.65;;
30519;SDS011;17300;50.374;8.006;2023-02-13T11:21:00;5.65;;;5.25;;
30519;SDS011;17300;50.374;8.006;2023-02-13T11:23:41;5.40;;;5.00;;
30519;SDS011;17300;50.374;8.006;2023-02-13T11:26:10;5.13;;;4.72;;
30519;SDS011;17300;50.374;8.006;2023-02-13T11:28:44;5.00;;;4.60;;
30519;SDS011;17300;50.374;8.006;2023-02-13T11:31:20;5.10;;;4.70;;
30519;SDS011;17300;50.374;8.006;2023-02-13T11:33:50;5.13;;;4.63;;
30519;SDS011;17300;50.374;8.006;2023-02-13T11:36:21;5.55;;;5.15;;
30519;SDS011;17300;50.374;8.006;2023-02-13T11:38:56;5.53;;;5.13;;
30519;SDS011;17300;50.374;8.006;2023-02-13T11:41:24;5.15;;;4.75;;
30519;SDS011;17300;50.374;8.006;2023-02-13T11:43:52;4.95;;;4.55;;
30519;SDS011;17300;50.374;8.006;2023-02-13T11:46:25;5.63;;;5.13;;
30519;SDS011;17300;50.374;8.006;2023-02-13T11:48:59;4.53;;;4.20;;
30519;SDS011;17300;50.374;8.006;2023-02-13T11:51:34;4.45;;;4.10;;
30519;SDS011;17300;50.374;8.006;2023-02-13T11:54:02;5.05;;;4.65;;
30519;SDS011;17300;50.374;8.006;2023-02-13T11:56:36;4.43;;;4.13;;
30519;SDS011;17300;50.374;8.006;2023-02-13T11:59:13;4.03;;;3.72;;
30519;SDS011;17300;50.374;8.006;2023-02-13T12:01:40;4.00;;;3.70;;
30519;SDS011;17300;50.374;8.006;2023-02-13T12:04:14;4.50;;;4.10;;
30519;SDS011;17300;50.374;8.006;2023-02-13T12:06:56;4.38;;;3.97;;
30519;SDS011;17300;50.374;8.006;2023-02-13T12:09:25;4.85;;;4.45;;
30519;SDS011;17300;50.374;8.006;2023-02-13T12:11:54;4.80;;;4.05;;
30519;SDS011;17300;50.374;8.006;2023-02-13T12:14:25;5.55;;;5.05;;
30519;SDS011;17300;50.374;8.006;2023-02-13T12:16:56;5.20;;;4.80;;
30519;SDS011;17300;50.374;8.006;2023-02-13T12:19:30;4.90;;;4.50;;
30519;SDS011;17300;50.374;8.006;2023-02-13T12:22:17;5.00;;;4.50;;
30519;SDS011;17300;50.374;8.006;2023-02-13T12:25:03;4.80;;;4.40;;
30519;SDS011;17300;50.374;8.006;2023-02-13T12:27:58;5.00;;;4.60;;
30519;SDS011;17300;50.374;8.006;2023-02-13T12:30:40;4.40;;;4.00;;
30519;SDS011;17300;50.374;8.006;2023-02-13T12:33:24;4.70;;;4.30;;
30519;SDS011;17300;50.374;8.006;2023-02-13T12:36:06;5.03;;;4.53;;
30519;SDS011;17300;50.374;8.006;2023-02-13T12:38:50;4.80;;;4.40;;
30519;SDS011;17300;50.374;8.006;2023-02-13T12:41:31;4.60;;;4.20;;
30519;SDS011;17300;50.374;8.006;2023-02-13T12:47:13;5.13;;;4.10;;
30519;SDS011;17300;50.374;8.006;2023-02-13T12:52:41;4.43;;;4.07;;
30519;SDS011;17300;50.374;8.006;2023-02-13T12:55:32;4.20;;;3.80;;
30519;SDS011;17300;50.374;8.006;2023-02-13T12:58:13;4.60;;;4.20;;
30519;SDS011;17300;50.374;8.006;2023-02-13T13:00:52;4.37;;;4.00;;
30519;SDS011;17300;50.374;8.006;2023-02-13T13:03:37;4.27;;;3.87;;
30519;SDS011;17300;50.374;8.006;2023-02-13T13:12:18;3.97;;;3.67;;
30519;SDS011;17300;50.374;8.006;2023-02-13T13:14:59;4.13;;;3.73;;
30519;SDS011;17300;50.374;8.006;2023-02-13T13:17:37;3.90;;;3.60;;
30519;SDS011;17300;50.374;8.006;2023-02-13T13:20:40;4.43;;;4.03;;
30519;SDS011;17300;50.374;8.006;2023-02-13T13:23:24;3.97;;;3.60;;
30519;SDS011;17300;50.374;8.006;2023-02-13T13:26:00;3.67;;;3.37;;
30519;SDS011;17300;50.374;8.006;2023-02-13T13:28:33;3.50;;;3.20;;
30519;SDS011;17300;50.374;8.006;2023-02-13T13:31:02;3.87;;;3.57;;
30519;SDS011;17300;50.374;8.006;2023-02-13T13:33:30;3.57;;;3.27;;
30519;SDS011;17300;50.374;8.006;2023-02-13T13:36:00;3.70;;;3.40;;
30519;SDS011;17300;50.374;8.006;2023-02-13T13:38:37;3.87;;;3.57;;
30519;SDS011;17300;50.374;8.006;2023-02-13T13:41:13;3.57;;;3.30;;
30519;SDS011;17300;50.374;8.006;2023-02-13T13:43:48;3.57;;;3.27;;
30519;SDS011;17300;50.374;8.006;2023-02-13T13:46:27;3.83;;;3.53;;
30519;SDS011;17300;50.374;8.006;2023-02-13T13:49:09;3.80;;;3.50;;
30519;SDS011;17300;50.374;8.006;2023-02-13T13:51:45;3.50;;;3.20;;
30519;SDS011;17300;50.374;8.006;2023-02-13T13:54:22;3.73;;;3.33;;
30519;SDS011;17300;50.374;8.006;2023-02-13T13:57:04;4.00;;;3.60;;
30519;SDS011;17300;50.374;8.006;2023-02-13T14:02:26;3.70;;;3.40;;
30519;SDS011;17300;50.374;8.006;2023-02-13T14:05:21;3.10;;;2.90;;
30519;SDS011;17300;50.374;8.006;2023-02-13T14:07:50;3.70;;;3.40;;
30519;SDS011;17300;50.374;8.006;2023-02-13T14:13:32;3.73;;;3.43;;
30519;SDS011;17300;50.374;8.006;2023-02-13T14:16:01;3.83;;;3.50;;
30519;SDS011;17300;50.374;8.006;2023-02-13T14:18:29;3.67;;;3.03;;
30519;SDS011;17300;50.374;8.006;2023-02-13T14:20:56;3.40;;;3.10;;
30519;SDS011;17300;50.374;8.006;2023-02-13T14:23:27;3.13;;;2.87;;
30519;SDS011;17300;50.374;8.006;2023-02-13T14:28:55;2.67;;;2.47;;
30519;SDS011;17300;50.374;8.006;2023-02-13T14:31:42;3.20;;;2.90;;
30519;SDS011;17300;50.374;8.006;2023-02-13T14:34:27;2.40;;;2.20;;
30519;SDS011;17300;50.374;8.006;2023-02-13T14:37:04;2.40;;;2.20;;
30519;SDS011;17300;50.374;8.006;2023-02-13T14:39:44;2.60;;;2.23;;
30519;SDS011;17300;50.374;8.006;2023-02-13T14:42:37;2.17;;;1.97;;
30519;SDS011;17300;50.374;8.006;2023-02-13T14:45:09;3.30;;;2.83;;
30519;SDS011;17300;50.374;8.006;2023-02-13T14:47:41;2.23;;;2.03;;
30519;SDS011;17300;50.374;8.006;2023-02-13T14:50:17;2.93;;;2.30;;
30519;SDS011;17300;50.374;8.006;2023-02-13T14:52:48;4.80;;;2.53;;
30519;SDS011;17300;50.374;8.006;2023-02-13T14:55:19;2.70;;;2.50;;
30519;SDS011;17300;50.374;8.006;2023-02-13T14:57:58;2.57;;;2.33;;
30519;SDS011;17300;50.374;8.006;2023-02-13T15:00:30;2.50;;;2.30;;
30519;SDS011;17300;50.374;8.006;2023-02-13T15:03:04;2.00;;;1.90;;
30519;SDS011;17300;50.374;8.006;2023-02-13T15:05:48;2.67;;;2.47;;
30519;SDS011;17300;50.374;8.006;2023-02-13T15:08:18;2.57;;;2.37;;
30519;SDS011;17300;50.374;8.006;2023-02-13T15:10:49;2.17;;;2.00;;
30519;SDS011;17300;50.374;8.006;2023-02-13T15:13:17;2.40;;;2.20;;
30519;SDS011;17300;50.374;8.006;2023-02-13T15:15:49;2.93;;;2.57;;
30519;SDS011;17300;50.374;8.006;2023-02-13T15:18:18;2.30;;;2.10;;
30519;SDS011;17300;50.374;8.006;2023-02-13T15:20:49;1.97;;;1.87;;
30519;SDS011;17300;50.374;8.006;2023-02-13T15:23:20;2.97;;;2.17;;
30519;SDS011;17300;50.374;8.006;2023-02-13T15:25:56;2.33;;;1.90;;
30519;SDS011;17300;50.374;8.006;2023-02-13T15:28:24;2.03;;;1.83;;
30519;SDS011;17300;50.374;8.006;2023-02-13T15:30:52;1.57;;;1.40;;
30519;SDS011;17300;50.374;8.006;2023-02-13T15:33:22;2.50;;;1.30;;
30519;SDS011;17300;50.374;8.006;2023-02-13T15:35:53;1.13;;;1.00;;
30519;SDS011;17300;50.374;8.006;2023-02-13T15:38:26;2.40;;;1.33;;
30519;SDS011;17300;50.374;8.006;2023-02-13T15:40:58;1.37;;;1.27;;